createdAt,value
2019-02-21T00:01:31.970Z,68.87
2019-02-21T00:03:59.902Z,69.05
2019-02-21T00:06:27.691Z,69.05
2019-02-21T00:08:55.451Z,69.32
2019-02-21T00:11:23.409Z,69.75
2019-02-21T00:13:51.135Z,69.86
2019-02-21T00:16:19.072Z,69.96
2019-02-21T00:18:46.864Z,70.35
2019-02-21T00:21:14.671Z,70.28
2019-02-21T00:23:42.422Z,70.24
2019-02-21T00:26:10.356Z,70.52
2019-02-21T00:28:38.100Z,70.64
2019-02-21T00:31:06.081Z,70.80
2019-02-21T00:33:33.952Z,70.95
2019-02-21T00:36:01.724Z,71.13
2019-02-21T00:38:29.476Z,71.42
2019-02-21T00:40:57.383Z,71.70
2019-02-21T00:43:25.098Z,71.84
2019-02-21T00:45:53.038Z,71.91
2019-02-21T00:48:20.780Z,71.67
2019-02-21T00:50:48.552Z,71.86
2019-02-21T00:53:16.340Z,72.09
2019-02-21T00:55:44.262Z,72.14
2019-02-21T00:58:11.965Z,72.32
2019-02-21T01:00:46.632Z,72.32
2019-02-21T01:03:09.336Z,72.34
2019-02-21T01:05:37.127Z,72.50
2019-02-21T01:08:05.705Z,72.05
2019-02-21T01:10:33.635Z,72.46
2019-02-21T01:13:01.382Z,72.80
2019-02-21T01:15:29.120Z,72.68
2019-02-21T01:17:57.164Z,72.53
2019-02-21T01:20:24.927Z,72.74
2019-02-21T01:22:52.863Z,72.90
2019-02-21T01:25:20.598Z,72.91
2019-02-21T01:27:48.413Z,72.37
2019-02-21T01:30:16.173Z,72.19
2019-02-21T01:32:44.123Z,72.30
2019-02-21T01:35:11.853Z,71.94
2019-02-21T01:37:39.685Z,71.54
2019-02-21T01:40:07.475Z,71.22
2019-02-21T01:42:35.424Z,71.00
2019-02-21T01:45:03.326Z,70.76
2019-02-21T01:47:31.089Z,70.86
2019-02-21T01:49:58.841Z,70.67
2019-02-21T01:52:26.626Z,70.31
2019-02-21T01:54:54.399Z,70.45
2019-02-21T01:57:22.344Z,70.37
2019-02-21T01:59:50.101Z,70.40
2019-02-21T02:02:17.861Z,70.17
2019-02-21T02:04:45.603Z,70.00
2019-02-21T02:07:13.375Z,70.12
2019-02-21T02:09:41.123Z,69.57
2019-02-21T02:12:08.896Z,69.66
2019-02-21T02:14:36.689Z,69.76
2019-02-21T02:17:04.720Z,69.62
2019-02-21T02:19:33.293Z,69.85
2019-02-21T02:22:01.220Z,70.12
2019-02-21T02:24:29.085Z,70.18
2019-02-21T02:26:57.052Z,70.36
2019-02-21T02:29:24.844Z,70.69
2019-02-21T02:31:52.744Z,71.00
2019-02-21T02:34:20.582Z,71.33
2019-02-21T02:36:48.519Z,71.48
2019-02-21T02:39:16.595Z,71.49
2019-02-21T02:41:44.525Z,71.69
2019-02-21T02:44:12.456Z,71.57
2019-02-21T02:46:40.370Z,71.61
2019-02-21T02:49:08.140Z,71.86
2019-02-21T02:51:36.055Z,71.48
2019-02-21T02:54:03.974Z,71.23
2019-02-21T02:56:31.890Z,71.23
2019-02-21T02:58:59.686Z,71.41
2019-02-21T03:01:34.698Z,71.27
2019-02-21T03:03:57.112Z,71.38
2019-02-21T03:06:24.999Z,71.48
2019-02-21T03:08:52.809Z,71.40
2019-02-21T03:11:20.511Z,70.94
2019-02-21T03:13:48.290Z,71.24
2019-02-21T03:16:16.121Z,71.50
2019-02-21T03:18:43.882Z,71.42
2019-02-21T03:21:11.607Z,71.23
2019-02-21T03:23:39.539Z,71.16
2019-02-21T03:26:07.297Z,71.32
2019-02-21T03:28:35.212Z,71.47
2019-02-21T03:31:02.971Z,71.33
2019-02-21T03:33:30.735Z,71.48
2019-02-21T03:35:58.455Z,71.58
2019-02-21T03:38:26.217Z,71.69
2019-02-21T03:40:53.950Z,71.99
2019-02-21T03:43:21.898Z,71.97
2019-02-21T03:45:49.641Z,72.12
2019-02-21T03:48:17.539Z,71.99
2019-02-21T03:50:45.303Z,71.79
2019-02-21T03:53:13.300Z,71.92
2019-02-21T03:55:41.008Z,71.80
2019-02-21T03:58:08.946Z,71.72
2019-02-21T04:00:36.730Z,71.57
2019-02-21T04:03:04.461Z,71.65
2019-02-21T04:05:32.218Z,71.70
2019-02-21T04:08:00.007Z,71.44
2019-02-21T04:10:27.815Z,71.53
2019-02-21T04:12:55.618Z,71.55
2019-02-21T04:15:23.410Z,71.14
2019-02-21T04:17:51.181Z,71.16
2019-02-21T04:20:19.223Z,71.29
2019-02-21T04:22:47.228Z,70.81
2019-02-21T04:25:14.998Z,70.31
2019-02-21T04:27:42.912Z,70.74
2019-02-21T04:30:10.764Z,70.55
2019-02-21T04:32:38.696Z,70.42
2019-02-21T04:35:06.514Z,70.31
2019-02-21T04:37:34.266Z,70.53
2019-02-21T04:40:02.044Z,70.10
2019-02-21T04:42:29.816Z,69.65
2019-02-21T04:44:57.740Z,69.40
2019-02-21T04:47:25.501Z,69.71
2019-02-21T04:49:53.322Z,69.60
2019-02-21T04:52:21.031Z,69.69
2019-02-21T04:54:49.012Z,69.16
2019-02-21T04:57:16.788Z,69.17
2019-02-21T04:59:44.698Z,68.87
2019-02-21T05:02:12.447Z,69.16
2019-02-21T05:04:40.211Z,69.70
2019-02-21T05:07:08.072Z,69.70
2019-02-21T05:09:35.871Z,69.48
2019-02-21T05:12:03.660Z,69.54
2019-02-21T05:14:31.448Z,69.23
2019-02-21T05:17:00.706Z,69.56
2019-02-21T05:19:28.566Z,69.48
2019-02-21T05:21:56.324Z,69.41
2019-02-21T05:24:24.391Z,69.66
2019-02-21T05:27:00.291Z,69.49
2019-02-21T05:29:28.067Z,69.36
2019-02-21T05:32:13.610Z,69.51
2019-02-21T05:35:04.026Z,68.98
2019-02-21T05:37:54.366Z,69.16
2019-02-21T05:40:42.175Z,69.51
2019-02-21T05:43:41.679Z,69.45
2019-02-21T05:46:34.930Z,69.47
2019-02-21T05:49:25.460Z,69.53
2019-02-21T05:52:07.579Z,69.86
2019-02-21T05:54:56.788Z,70.10
2019-02-21T05:57:52.783Z,70.36
2019-02-21T06:00:58.422Z,70.23
2019-02-21T06:04:04.021Z,70.12
2019-02-21T06:06:56.158Z,70.19
2019-02-21T06:09:45.204Z,70.50
2019-02-21T06:12:32.790Z,70.31
2019-02-21T06:14:57.103Z,71.12
2019-02-21T06:17:40.989Z,70.68
2019-02-21T06:20:40.510Z,69.78
2019-02-21T06:23:25.043Z,69.83
2019-02-21T06:26:18.288Z,69.33
2019-02-21T06:28:59.638Z,69.29
2019-02-21T06:31:27.566Z,69.13
2019-02-21T06:33:55.333Z,68.64
2019-02-21T06:36:23.324Z,68.89
2019-02-21T06:38:51.092Z,69.19
2019-02-21T06:41:18.840Z,69.11
2019-02-21T06:43:46.596Z,68.91
2019-02-21T06:46:14.425Z,68.94
2019-02-21T06:48:42.173Z,68.94
2019-02-21T06:51:09.984Z,68.61
2019-02-21T06:53:37.743Z,68.25
2019-02-21T06:56:05.563Z,68.51
2019-02-21T06:58:33.279Z,68.49
2019-02-21T07:01:01.256Z,68.08
2019-02-21T07:03:29.172Z,67.96
2019-02-21T07:05:56.991Z,67.66
2019-02-21T07:08:25.239Z,67.60
2019-02-21T07:10:53.313Z,67.35
2019-02-21T07:13:26.719Z,66.98
2019-02-21T07:15:50.793Z,66.55
2019-02-21T07:18:18.554Z,66.49
2019-02-21T07:20:46.307Z,66.09
2019-02-21T07:23:14.084Z,66.35
2019-02-21T07:25:50.722Z,66.73
2019-02-21T07:28:18.557Z,66.71
2019-02-21T07:30:46.610Z,66.20
2019-02-21T07:33:14.530Z,66.06
2019-02-21T07:35:42.263Z,66.36
2019-02-21T07:38:10.215Z,66.34
2019-02-21T07:40:37.997Z,66.48
2019-02-21T07:43:05.786Z,66.24
2019-02-21T07:45:36.254Z,65.98
2019-02-21T07:48:03.429Z,65.93
2019-02-21T07:50:31.563Z,65.95
2019-02-21T07:53:02.552Z,65.78
2019-02-21T07:55:29.169Z,65.47
2019-02-21T07:57:57.141Z,65.73
2019-02-21T08:00:24.914Z,65.58
2019-02-21T08:02:52.657Z,65.11
2019-02-21T08:05:20.448Z,64.54
2019-02-21T08:07:49.896Z,64.16
2019-02-21T08:10:17.842Z,63.38
2019-02-21T08:12:45.784Z,63.37
2019-02-21T08:15:13.834Z,63.29
2019-02-21T08:17:44.137Z,63.36
2019-02-21T08:20:12.008Z,63.06
2019-02-21T08:22:41.206Z,62.41
2019-02-21T08:25:09.344Z,61.10
2019-02-21T08:27:37.310Z,60.22
2019-02-21T08:30:07.713Z,59.18
2019-02-21T08:33:13.282Z,58.63
2019-02-21T08:35:41.176Z,58.57
2019-02-21T08:38:09.102Z,58.62
2019-02-21T08:40:36.898Z,58.38
2019-02-21T08:43:05.664Z,58.13
2019-02-21T08:45:33.444Z,58.00
2019-02-21T08:48:01.222Z,59.10
2019-02-21T08:50:29.028Z,59.90
2019-02-21T08:52:56.808Z,60.01
2019-02-21T08:55:24.572Z,60.12
2019-02-21T08:57:52.366Z,59.81
2019-02-21T09:00:20.152Z,59.90
2019-02-21T09:02:47.904Z,59.66
2019-02-21T09:05:16.011Z,59.69
2019-02-21T09:07:46.318Z,59.74
2019-02-21T09:10:13.840Z,60.02
2019-02-21T09:12:41.798Z,60.48
2019-02-21T09:15:12.907Z,61.13
2019-02-21T09:17:42.679Z,61.47
2019-02-21T09:20:10.629Z,62.19
2019-02-21T09:22:38.542Z,62.54
2019-02-21T09:25:09.268Z,62.25
2019-02-21T09:27:37.078Z,62.05
2019-02-21T09:30:08.048Z,61.22
2019-02-21T09:32:35.927Z,60.54
2019-02-21T09:35:03.767Z,59.56
2019-02-21T09:37:31.569Z,58.59
2019-02-21T09:39:59.304Z,57.47
2019-02-21T09:42:27.165Z,56.58
2019-02-21T09:44:54.939Z,55.98
2019-02-21T09:47:22.730Z,56.20
2019-02-21T09:49:50.475Z,56.49
2019-02-21T09:52:18.255Z,56.60
2019-02-21T09:54:47.459Z,57.13
2019-02-21T09:57:15.523Z,57.76
2019-02-21T09:59:43.325Z,58.15
2019-02-21T10:02:11.190Z,58.29
2019-02-21T10:04:38.979Z,58.32
2019-02-21T10:07:06.768Z,58.76
2019-02-21T10:09:34.533Z,59.16
2019-02-21T10:12:02.632Z,59.17
2019-02-21T10:14:30.566Z,59.54
2019-02-21T10:16:58.411Z,59.87
2019-02-21T10:19:26.272Z,59.89
2019-02-21T10:21:54.073Z,60.01
2019-02-21T10:24:21.906Z,60.26
2019-02-21T10:26:49.735Z,60.06
2019-02-21T10:29:18.270Z,59.20
2019-02-21T10:31:46.032Z,57.97
2019-02-21T10:34:13.822Z,56.99
2019-02-21T10:36:41.609Z,56.05
2019-02-21T10:39:10.571Z,55.71
2019-02-21T10:41:42.073Z,54.98
2019-02-21T10:44:09.911Z,54.73
2019-02-21T10:46:37.703Z,54.49
2019-02-21T10:49:05.462Z,54.42
2019-02-21T10:51:33.273Z,54.20
2019-02-21T10:54:01.069Z,53.61
2019-02-21T10:56:28.850Z,52.23
2019-02-21T10:58:56.655Z,50.89
2019-02-21T11:01:24.436Z,49.65
2019-02-21T11:03:53.179Z,50.05
2019-02-21T11:06:20.961Z,48.62
2019-02-21T11:08:48.756Z,47.38
2019-02-21T11:11:17.323Z,47.77
2019-02-21T11:13:45.145Z,46.62
2019-02-21T11:16:13.603Z,46.22
2019-02-21T11:18:41.693Z,46.03
2019-02-21T11:21:09.451Z,45.45
2019-02-21T11:23:40.651Z,44.62
2019-02-21T11:26:08.459Z,44.50
2019-02-21T11:28:36.443Z,43.58
2019-02-21T11:31:04.215Z,43.09
2019-02-21T11:33:33.420Z,43.29
2019-02-21T11:36:01.690Z,42.51
2019-02-21T11:38:29.432Z,41.79
2019-02-21T11:40:57.557Z,41.41
2019-02-21T11:43:25.348Z,37.14
2019-02-21T11:45:55.206Z,33.74
2019-02-21T11:48:22.823Z,33.07
2019-02-21T11:50:50.613Z,30.71
2019-02-21T11:53:18.365Z,28.41
2019-02-21T11:55:46.113Z,26.71
2019-02-21T11:58:13.921Z,28.54
2019-02-21T12:00:41.750Z,29.34
2019-02-21T12:03:09.815Z,29.36
2019-02-21T12:05:39.877Z,27.15
2019-02-21T12:08:09.248Z,25.00
2019-02-21T12:10:37.103Z,25.53
2019-02-21T12:13:04.878Z,25.33
2019-02-21T12:15:32.668Z,28.26
2019-02-21T12:18:00.453Z,30.85
2019-02-21T12:20:28.376Z,31.55
2019-02-21T12:22:56.251Z,31.80
2019-02-21T12:25:24.066Z,32.20
2019-02-21T12:27:51.859Z,33.13
2019-02-21T12:30:19.808Z,34.00
2019-02-21T12:32:47.698Z,35.48
2019-02-21T12:35:15.511Z,37.32
2019-02-21T12:37:43.336Z,37.81
2019-02-21T12:40:14.824Z,39.45
2019-02-21T12:42:42.631Z,39.39
2019-02-21T12:45:13.386Z,39.91
2019-02-21T12:47:51.002Z,39.60
2019-02-21T12:50:13.050Z,39.62
2019-02-21T12:52:40.837Z,39.68
2019-02-21T12:55:09.238Z,40.19
2019-02-21T12:57:37.062Z,41.70
2019-02-21T13:00:09.119Z,42.88
2019-02-21T13:02:36.966Z,42.33
2019-02-21T13:05:05.192Z,42.94
2019-02-21T13:07:32.983Z,43.98
2019-02-21T13:10:00.742Z,43.13
2019-02-21T13:12:28.602Z,43.80
2019-02-21T13:14:56.399Z,43.37
2019-02-21T13:17:24.256Z,43.47
2019-02-21T13:19:52.007Z,44.13
2019-02-21T13:22:19.937Z,46.26
2019-02-21T13:24:48.047Z,47.62
2019-02-21T13:27:15.874Z,47.53
2019-02-21T13:29:43.681Z,48.21
2019-02-21T13:32:11.468Z,48.66
2019-02-21T13:34:39.246Z,48.97
2019-02-21T13:37:07.073Z,48.74
2019-02-21T13:39:34.810Z,48.39
2019-02-21T13:42:02.591Z,49.48
2019-02-21T13:44:30.366Z,49.20
2019-02-21T13:46:58.167Z,47.42
2019-02-21T13:49:25.923Z,46.03
2019-02-21T13:51:53.735Z,45.56
2019-02-21T13:54:21.499Z,45.29
2019-02-21T13:56:49.533Z,46.14
2019-02-21T13:59:17.253Z,46.95
2019-02-21T14:01:45.038Z,47.94
2019-02-21T14:04:12.789Z,47.44
2019-02-21T14:06:40.584Z,47.61
2019-02-21T14:09:08.352Z,46.17
2019-02-21T14:11:36.282Z,39.85
2019-02-21T14:14:04.101Z,35.78
2019-02-21T14:16:31.919Z,37.01
2019-02-21T14:18:59.753Z,39.18
2019-02-21T14:21:27.520Z,40.96
2019-02-21T14:23:55.651Z,42.61
2019-02-21T14:26:23.410Z,45.02
2019-02-21T14:28:51.631Z,46.31
2019-02-21T14:31:19.472Z,47.25
2019-02-21T14:33:47.256Z,48.47
2019-02-21T14:36:18.140Z,49.13
2019-02-21T14:38:45.002Z,49.51
2019-02-21T14:41:18.529Z,49.81
2019-02-21T14:43:46.363Z,50.21
2019-02-21T14:46:14.160Z,50.46
2019-02-21T14:48:42.019Z,50.27
2019-02-21T14:51:09.833Z,49.90
2019-02-21T14:53:37.575Z,49.67
2019-02-21T14:56:05.385Z,49.81
2019-02-21T14:58:34.125Z,49.86
2019-02-21T15:01:01.877Z,50.02
2019-02-21T15:03:29.727Z,49.95
2019-02-21T15:05:58.114Z,50.22
2019-02-21T15:08:26.020Z,50.69
2019-02-21T15:10:53.859Z,50.68
2019-02-21T15:13:21.723Z,50.38
2019-02-21T15:15:49.489Z,50.60
2019-02-21T15:18:17.329Z,50.84
2019-02-21T15:20:45.120Z,51.74
2019-02-21T15:23:12.877Z,52.28
2019-02-21T15:25:40.692Z,52.71
2019-02-21T15:28:08.800Z,53.61
2019-02-21T15:30:38.943Z,52.81
2019-02-21T15:33:07.093Z,53.30
2019-02-21T15:35:34.884Z,53.88
2019-02-21T15:38:02.717Z,53.31
2019-02-21T15:40:30.482Z,53.73
2019-02-21T15:42:58.295Z,54.43
2019-02-21T15:45:26.115Z,54.97
2019-02-21T15:47:53.932Z,55.40
2019-02-21T15:50:21.829Z,55.01
2019-02-21T15:52:51.619Z,54.70
2019-02-21T15:55:19.441Z,55.55
2019-02-21T15:57:47.226Z,56.04
2019-02-21T16:00:16.420Z,55.63
2019-02-21T16:02:44.287Z,55.75
2019-02-21T16:05:12.104Z,56.59
2019-02-21T16:07:39.976Z,57.18
2019-02-21T16:10:11.061Z,57.50
2019-02-21T16:12:39.003Z,58.34
2019-02-21T16:15:08.859Z,60.14
2019-02-21T16:17:37.056Z,61.67
2019-02-21T16:20:07.481Z,62.96
2019-02-21T16:22:35.268Z,65.52
2019-02-21T16:25:03.716Z,66.08
2019-02-21T16:27:31.513Z,66.80
2019-02-21T16:29:59.308Z,67.03
2019-02-21T16:32:27.182Z,68.36
2019-02-21T16:34:54.947Z,68.41
2019-02-21T16:37:22.773Z,68.32
2019-02-21T16:39:50.594Z,69.04
2019-02-21T16:42:18.375Z,69.74
2019-02-21T16:44:46.175Z,69.37
2019-02-21T16:47:13.928Z,69.38
2019-02-21T16:49:41.798Z,69.30
2019-02-21T16:52:09.658Z,68.33
2019-02-21T16:54:37.469Z,68.71
2019-02-21T16:57:05.250Z,68.01
2019-02-21T16:59:33.189Z,67.83
2019-02-21T17:02:00.961Z,67.76
2019-02-21T17:04:28.879Z,67.68
2019-02-21T17:06:56.808Z,67.72
2019-02-21T17:09:24.617Z,67.12
2019-02-21T17:11:52.406Z,67.51
2019-02-21T17:14:20.194Z,67.52
2019-02-21T17:16:47.950Z,66.93
2019-02-21T17:19:15.925Z,67.41
2019-02-21T17:21:43.718Z,67.57
2019-02-21T17:24:11.710Z,67.62
2019-02-21T17:26:39.494Z,67.43
2019-02-21T17:29:07.314Z,67.30
2019-02-21T17:31:37.226Z,66.21
2019-02-21T17:34:04.866Z,66.29
2019-02-21T17:36:34.617Z,65.59
2019-02-21T17:39:02.650Z,66.08
2019-02-21T17:41:30.437Z,66.62
2019-02-21T17:43:58.214Z,66.65
2019-02-21T17:46:26.027Z,66.38
2019-02-21T17:48:53.800Z,66.69
2019-02-21T17:51:21.577Z,66.46
2019-02-21T17:53:49.320Z,66.13
2019-02-21T17:56:17.090Z,66.32
2019-02-21T17:58:44.851Z,66.15
2019-02-21T18:01:12.665Z,66.22
2019-02-21T18:03:40.441Z,66.31
2019-02-21T18:06:08.286Z,66.20
2019-02-21T18:08:36.077Z,65.85
2019-02-21T18:11:03.862Z,65.95
2019-02-21T18:13:31.684Z,66.00
2019-02-21T18:15:59.639Z,65.74
2019-02-21T18:18:27.399Z,65.78
2019-02-21T18:20:55.154Z,65.47
2019-02-21T18:23:22.923Z,65.73
2019-02-21T18:26:02.934Z,66.04
2019-02-21T18:28:30.671Z,65.30
2019-02-21T18:30:58.451Z,65.78
2019-02-21T18:33:26.267Z,65.73
2019-02-21T18:35:54.082Z,65.69
2019-02-21T18:38:21.856Z,65.29
2019-02-21T18:40:49.656Z,64.96
2019-02-21T18:43:17.429Z,65.23
2019-02-21T18:45:45.329Z,65.77
2019-02-21T18:48:13.065Z,65.40
2019-02-21T18:50:40.915Z,65.71
2019-02-21T18:53:08.729Z,65.91
2019-02-21T18:55:36.507Z,65.61
2019-02-21T18:58:04.300Z,65.99
2019-02-21T19:00:32.101Z,66.05
2019-02-21T19:02:59.852Z,66.11
2019-02-21T19:05:35.383Z,66.61
2019-02-21T19:08:04.183Z,66.25
2019-02-21T19:10:27.453Z,66.17
2019-02-21T19:12:55.323Z,66.32
2019-02-21T19:15:24.070Z,66.59
2019-02-21T19:17:51.842Z,66.83
2019-02-21T19:20:19.700Z,66.74
2019-02-21T19:22:48.742Z,67.41
2019-02-21T19:25:17.779Z,67.43
2019-02-21T19:27:45.811Z,67.64
2019-02-21T19:30:27.415Z,67.78
2019-02-21T19:32:55.343Z,69.04
2019-02-21T19:35:23.403Z,68.68
2019-02-21T19:37:51.185Z,68.86
2019-02-21T19:40:19.066Z,68.87
2019-02-21T19:42:46.931Z,69.01
2019-02-21T19:45:14.995Z,69.04
2019-02-21T19:47:42.844Z,69.73
2019-02-21T19:50:11.112Z,69.26
2019-02-21T19:52:38.905Z,69.16
2019-02-21T19:55:06.709Z,69.21
2019-02-21T19:57:34.499Z,69.08
2019-02-21T20:00:02.393Z,69.64
2019-02-21T20:02:30.417Z,70.82
2019-02-21T20:04:58.220Z,72.44
2019-02-21T20:07:26.057Z,72.64
2019-02-21T20:09:53.804Z,73.58
2019-02-21T20:12:21.683Z,73.28
2019-02-21T20:14:49.433Z,73.08
2019-02-21T20:17:17.366Z,73.08
2019-02-21T20:19:45.111Z,73.16
2019-02-21T20:22:13.746Z,73.46
2019-02-21T20:24:41.536Z,73.39
2019-02-21T20:27:09.402Z,73.91
2019-02-21T20:29:37.229Z,74.36
2019-02-21T20:32:05.062Z,74.16
2019-02-21T20:34:32.880Z,73.73
2019-02-21T20:37:00.632Z,73.94
2019-02-21T20:39:28.408Z,74.09
2019-02-21T20:41:56.271Z,74.15
2019-02-21T20:44:24.051Z,74.04
2019-02-21T20:46:51.788Z,74.13
2019-02-21T20:49:19.568Z,73.92
2019-02-21T20:51:47.325Z,74.02
2019-02-21T20:54:15.121Z,74.01
2019-02-21T20:56:42.940Z,74.00
2019-02-21T20:59:10.725Z,74.28
2019-02-21T21:01:38.579Z,74.40
2019-02-21T21:04:06.377Z,74.22
2019-02-21T21:06:34.130Z,75.37
2019-02-21T21:09:02.101Z,75.07
2019-02-21T21:11:29.878Z,75.05
2019-02-21T21:13:57.919Z,75.88
2019-02-21T21:16:25.661Z,76.78
2019-02-21T21:18:53.443Z,76.81
2019-02-21T21:21:21.247Z,77.04
2019-02-21T21:23:49.173Z,77.18
2019-02-21T21:26:17.051Z,77.90
2019-02-21T21:28:44.903Z,78.27
2019-02-21T21:31:15.247Z,77.83
2019-02-21T21:33:42.345Z,77.77
2019-02-21T21:36:10.150Z,78.17
2019-02-21T21:38:37.949Z,77.69
2019-02-21T21:41:05.751Z,77.55
2019-02-21T21:43:33.502Z,78.22
2019-02-21T21:46:01.277Z,78.90
2019-02-21T21:48:29.081Z,78.54
2019-02-21T21:50:56.886Z,78.74
2019-02-21T21:53:24.657Z,79.24
2019-02-21T21:55:52.461Z,79.85
2019-02-21T21:58:20.253Z,79.96
2019-02-21T22:00:48.043Z,80.04
2019-02-21T22:03:15.812Z,79.34
2019-02-21T22:05:43.640Z,79.60
2019-02-21T22:08:11.416Z,80.04
2019-02-21T22:10:39.221Z,80.11
2019-02-21T22:13:07.113Z,79.58
2019-02-21T22:15:34.931Z,80.11
2019-02-21T22:18:02.702Z,80.69
2019-02-21T22:20:30.491Z,80.89
2019-02-21T22:22:58.235Z,80.61
2019-02-21T22:25:25.997Z,80.01
2019-02-21T22:27:53.797Z,79.43
2019-02-21T22:30:21.594Z,78.99
2019-02-21T22:32:49.352Z,78.40
2019-02-21T22:35:17.087Z,78.43
2019-02-21T22:37:44.881Z,77.76
2019-02-21T22:40:12.902Z,77.15
2019-02-21T22:42:40.684Z,77.95
2019-02-21T22:45:08.844Z,78.27
2019-02-21T22:47:36.631Z,79.01
2019-02-21T22:50:06.288Z,79.48
2019-02-21T22:52:34.030Z,79.41
2019-02-21T22:55:09.797Z,79.13
2019-02-21T22:57:31.470Z,79.58
2019-02-21T22:59:59.235Z,79.73
2019-02-21T23:02:27.750Z,79.90
2019-02-21T23:05:55.526Z,80.15
2019-02-21T23:08:52.623Z,79.96
2019-02-21T23:11:20.720Z,80.22
2019-02-21T23:13:48.694Z,80.59
2019-02-21T23:16:16.693Z,80.87
2019-02-21T23:18:45.102Z,80.94
2019-02-21T23:21:13.033Z,81.07
2019-02-21T23:23:40.847Z,81.03
2019-02-21T23:26:09.916Z,81.35
2019-02-21T23:28:37.645Z,81.28
2019-02-21T23:31:05.568Z,80.83
2019-02-21T23:33:36.090Z,81.39
2019-02-21T23:36:03.926Z,81.41
2019-02-21T23:38:31.668Z,81.52
2019-02-21T23:40:59.576Z,81.61
2019-02-21T23:43:27.384Z,81.17
2019-02-21T23:45:55.125Z,81.60
2019-02-21T23:48:22.890Z,81.73
2019-02-21T23:50:50.634Z,81.71
2019-02-21T23:53:18.426Z,82.15
2019-02-21T23:55:46.186Z,82.21
2019-02-21T23:58:13.955Z,82.22
